createdAt,value
2022-11-18T00:01:14.341Z,99480.53
2022-11-18T00:03:41.490Z,99484.09
2022-11-18T00:06:11.842Z,99479.69
2022-11-18T00:08:38.455Z,99483.81
2022-11-18T00:11:09.248Z,99484.06
2022-11-18T00:13:56.651Z,99481.09
2022-11-18T00:16:23.860Z,99485.13
2022-11-18T00:18:50.394Z,99485.41
2022-11-18T00:21:16.886Z,99491.06
2022-11-18T00:23:43.467Z,99490.53
2022-11-18T00:26:13.049Z,99504.16
2022-11-18T00:28:40.512Z,99498.66
2022-11-18T00:31:09.549Z,99508.78
2022-11-18T00:33:39.240Z,99510.91
2022-11-18T00:36:08.004Z,99514.19
2022-11-18T00:38:34.538Z,99513.94
2022-11-18T00:41:11.123Z,99513.34
2022-11-18T00:43:38.291Z,99518.25
2022-11-18T00:46:06.285Z,99520.09
2022-11-18T00:48:32.817Z,99526.38
2022-11-18T00:51:07.794Z,99534.03
2022-11-18T00:53:34.310Z,99528.84
2022-11-18T00:56:00.913Z,99528.56
2022-11-18T00:58:27.474Z,99532.41
2022-11-18T01:00:53.964Z,99538.38
2022-11-18T01:03:20.855Z,99534.84
2022-11-18T01:05:47.950Z,99550.09
2022-11-18T01:08:14.901Z,99548.25
2022-11-18T01:10:42.020Z,99550.06
2022-11-18T01:13:19.991Z,99553.41
2022-11-18T01:15:58.153Z,99556.41
2022-11-18T01:18:27.537Z,99561.28
2022-11-18T01:20:53.991Z,99560.75
2022-11-18T01:23:20.931Z,99565.66
2022-11-18T01:25:49.414Z,99571.94
2022-11-18T01:28:23.007Z,99571.13
2022-11-18T01:30:50.487Z,99570.03
2022-11-18T01:33:17.024Z,99578.22
2022-11-18T01:35:44.517Z,99581.47
2022-11-18T01:38:12.794Z,99588.00
2022-11-18T01:40:39.889Z,99585.84
2022-11-18T01:43:13.467Z,99592.91
2022-11-18T01:45:41.735Z,99597.28
2022-11-18T01:48:15.564Z,99598.88
2022-11-18T01:50:47.538Z,99605.16
2022-11-18T01:53:22.267Z,99597.56
2022-11-18T01:55:52.472Z,99604.34
2022-11-18T01:58:25.392Z,99599.47
2022-11-18T02:00:52.314Z,99604.63
2022-11-18T02:03:20.568Z,99601.63
2022-11-18T02:05:50.468Z,99609.78
2022-11-18T02:08:18.664Z,99618.22
2022-11-18T02:10:45.128Z,99608.16
2022-11-18T02:13:12.907Z,99617.41
2022-11-18T02:15:42.309Z,99617.13
2022-11-18T02:18:26.829Z,99617.69
2022-11-18T02:21:01.396Z,99624.50
2022-11-18T02:24:14.114Z,99629.41
2022-11-18T02:26:52.566Z,99624.50
2022-11-18T02:29:28.862Z,99628.28
2022-11-18T02:32:15.772Z,99632.16
2022-11-18T02:35:09.566Z,99634.88
2022-11-18T02:38:05.288Z,99643.28
2022-11-18T02:40:47.713Z,99641.13
2022-11-18T02:43:24.559Z,99635.69
2022-11-18T02:45:56.253Z,99649.00
2022-11-18T02:48:26.483Z,99653.34
2022-11-18T02:50:54.275Z,99654.19
2022-11-18T02:53:23.176Z,99654.19
2022-11-18T02:55:50.849Z,99645.72
2022-11-18T02:58:20.380Z,99653.34
2022-11-18T03:00:56.972Z,99655.00
2022-11-18T03:03:27.518Z,99655.00
2022-11-18T03:06:00.670Z,99665.91
2022-11-18T03:08:34.895Z,99653.06
2022-11-18T03:11:15.912Z,99665.91
2022-11-18T03:13:48.480Z,99665.91
2022-11-18T03:16:23.178Z,99675.13
2022-11-18T03:19:13.412Z,99663.19
2022-11-18T03:21:47.603Z,99670.00
2022-11-18T03:24:21.239Z,99665.91
2022-11-18T03:27:22.024Z,99667.25
2022-11-18T03:29:57.925Z,99685.25
2022-11-18T03:32:32.423Z,99683.16
2022-11-18T03:35:31.204Z,99682.63
2022-11-18T03:38:07.377Z,99692.94
2022-11-18T03:40:37.473Z,99692.94
2022-11-18T03:43:08.804Z,99698.38
2022-11-18T03:45:48.704Z,99707.97
2022-11-18T03:48:18.127Z,99700.88
2022-11-18T03:50:51.340Z,99704.66
2022-11-18T03:53:20.380Z,99713.41
2022-11-18T03:55:52.584Z,99715.31
2022-11-18T03:58:22.352Z,99717.44
2022-11-18T04:00:53.719Z,99727.53
2022-11-18T04:03:20.221Z,99729.16
2022-11-18T04:05:52.444Z,99709.47
2022-11-18T04:08:30.308Z,99731.91
2022-11-18T04:11:37.899Z,99733.53
2022-11-18T04:14:07.063Z,99731.25
2022-11-18T04:16:42.122Z,99741.13
2022-11-18T04:19:08.844Z,99739.50
2022-11-18T04:21:35.556Z,99738.34
2022-11-18T04:24:02.390Z,99742.72
2022-11-18T04:26:29.063Z,99751.97
2022-11-18T04:28:55.511Z,99757.66
2022-11-18T04:31:22.020Z,99760.66
2022-11-18T04:33:48.549Z,99763.38
2022-11-18T04:36:15.082Z,99760.59
2022-11-18T04:38:41.548Z,99764.38
2022-11-18T04:41:08.029Z,99762.75
2022-11-18T04:43:34.493Z,99773.91
2022-11-18T04:46:01.053Z,99769.53
2022-11-18T04:48:27.578Z,99776.88
2022-11-18T04:50:57.121Z,99776.31
2022-11-18T04:53:23.599Z,99775.72
2022-11-18T04:55:50.111Z,99774.13
2022-11-18T04:58:16.577Z,99783.34
2022-11-18T05:00:43.044Z,99785.47
2022-11-18T05:03:09.577Z,99788.16
2022-11-18T05:05:36.056Z,99794.69
2022-11-18T05:08:02.499Z,99796.34
2022-11-18T05:10:28.967Z,99803.91
2022-11-18T05:12:55.430Z,99797.34
2022-11-18T05:15:25.526Z,99805.94
2022-11-18T05:17:52.052Z,99804.03
2022-11-18T05:20:18.613Z,99800.94
2022-11-18T05:22:45.079Z,99805.13
2022-11-18T05:25:11.570Z,99810.00
2022-11-18T05:27:38.115Z,99817.34
2022-11-18T05:30:05.557Z,99820.06
2022-11-18T05:32:32.082Z,99823.22
2022-11-18T05:34:58.567Z,99826.53
2022-11-18T05:37:25.051Z,99828.97
2022-11-18T05:39:51.575Z,99826.75
2022-11-18T05:42:36.364Z,99829.16
2022-11-18T05:45:02.940Z,99827.00
2022-11-18T05:47:49.416Z,99841.13
2022-11-18T05:50:20.007Z,99839.97
2022-11-18T05:52:47.651Z,99846.00
2022-11-18T05:55:15.882Z,99841.06
2022-11-18T05:57:42.340Z,99847.81
2022-11-18T06:00:09.255Z,99849.47
2022-11-18T06:02:41.216Z,99856.81
2022-11-18T06:05:08.345Z,99856.25
2022-11-18T06:07:42.871Z,99860.22
2022-11-18T06:10:13.656Z,99861.84
2022-11-18T06:12:42.605Z,99862.94
2022-11-18T06:15:22.596Z,99875.28
2022-11-18T06:17:56.074Z,99883.59
2022-11-18T06:20:22.730Z,99876.69
2022-11-18T06:22:52.212Z,99885.44
2022-11-18T06:25:19.166Z,99888.72
2022-11-18T06:27:47.409Z,99897.63
2022-11-18T06:30:14.264Z,99895.72
2022-11-18T06:32:40.837Z,99896.97
2022-11-18T06:35:07.902Z,99904.38
2022-11-18T06:37:35.132Z,99907.09
2022-11-18T06:40:01.653Z,99907.34
2022-11-18T06:42:47.305Z,99907.34
2022-11-18T06:45:13.984Z,99920.16
2022-11-18T06:47:40.651Z,99908.66
2022-11-18T06:50:07.488Z,99920.63
2022-11-18T06:52:33.965Z,99917.97
2022-11-18T06:55:00.531Z,99919.88
2022-11-18T06:57:27.012Z,99929.38
2022-11-18T06:59:57.691Z,99932.59
2022-11-18T07:02:27.233Z,99937.34
2022-11-18T07:04:53.789Z,99954.25
2022-11-18T07:07:20.371Z,99945.59
2022-11-18T07:09:46.960Z,99948.53
2022-11-18T07:12:13.439Z,99958.63
2022-11-18T07:14:39.896Z,99960.84
2022-11-18T07:17:06.422Z,99965.22
2022-11-18T07:19:35.771Z,99968.69
2022-11-18T07:22:02.700Z,99968.19
2022-11-18T07:24:29.248Z,99970.06
2022-11-18T07:26:55.843Z,99971.72
2022-11-18T07:29:22.384Z,99978.13
2022-11-18T07:31:48.906Z,99980.28
2022-11-18T07:34:15.456Z,99987.44
2022-11-18T07:36:42.028Z,99983.91
2022-11-18T07:39:08.981Z,99982.50
2022-11-18T07:41:35.728Z,99994.78
2022-11-18T07:44:03.515Z,99998.81
2022-11-18T07:46:32.757Z,99992.22
2022-11-18T07:49:01.168Z,100005.09
2022-11-18T07:51:30.388Z,100009.47
2022-11-18T07:53:56.896Z,99999.88
2022-11-18T07:56:24.049Z,100004.75
2022-11-18T07:58:54.813Z,100020.00
2022-11-18T08:01:23.574Z,100018.59
2022-11-18T08:03:50.320Z,100015.63
2022-11-18T08:06:18.783Z,100020.25
2022-11-18T08:08:45.785Z,100020.56
2022-11-18T08:11:21.630Z,100025.53
2022-11-18T08:13:49.135Z,100028.84
2022-11-18T08:16:21.205Z,100033.69
2022-11-18T08:18:48.131Z,100025.28
2022-11-18T08:21:16.244Z,100048.22
2022-11-18T08:23:43.020Z,100041.22
2022-11-18T08:26:14.589Z,100046.06
2022-11-18T08:28:42.557Z,100055.63
2022-11-18T08:31:32.923Z,100053.41
2022-11-18T08:34:01.086Z,100058.59
2022-11-18T08:36:29.704Z,100057.19
2022-11-18T08:38:57.379Z,100062.72
2022-11-18T08:41:35.498Z,100064.69
2022-11-18T08:44:03.028Z,100059.41
2022-11-18T08:46:30.515Z,100063.63
2022-11-18T08:48:57.825Z,100068.84
2022-11-18T08:51:25.167Z,100063.41
2022-11-18T08:53:51.961Z,100063.47
2022-11-18T08:56:20.328Z,100069.25
2022-11-18T08:58:47.023Z,100074.22
2022-11-18T09:01:13.998Z,100071.25
2022-11-18T09:03:40.848Z,100073.13
2022-11-18T09:06:19.236Z,100084.34
2022-11-18T09:08:46.241Z,100077.28
2022-11-18T09:11:21.959Z,100085.44
2022-11-18T09:14:39.115Z,100078.00
2022-11-18T09:16:39.766Z,100088.16
2022-11-18T09:19:31.685Z,100093.00
2022-11-18T09:21:53.208Z,100095.22
2022-11-18T09:24:20.129Z,100099.63
2022-11-18T09:26:48.092Z,100106.47
2022-11-18T09:29:14.666Z,100101.59
2022-11-18T09:31:41.243Z,100106.56
2022-11-18T09:34:10.266Z,100112.34
2022-11-18T09:36:36.854Z,100104.25
2022-11-18T09:39:04.188Z,100120.09
2022-11-18T09:41:46.910Z,100118.53
2022-11-18T09:44:31.339Z,100126.69
2022-11-18T09:47:20.692Z,100133.31
2022-11-18T09:49:48.543Z,100131.66
2022-11-18T09:52:20.263Z,100134.63
2022-11-18T09:54:47.247Z,100143.22
2022-11-18T09:57:21.721Z,100150.97
2022-11-18T09:59:48.485Z,100154.28
2022-11-18T10:02:15.030Z,100161.72
2022-11-18T10:04:41.533Z,100163.22
2022-11-18T10:07:22.293Z,100170.69
2022-11-18T10:09:54.072Z,100161.41
2022-11-18T10:13:05.843Z,100164.47
2022-11-18T10:15:50.628Z,100159.63
2022-11-18T10:18:44.851Z,100164.56
2022-11-18T10:21:34.103Z,100174.47
2022-11-18T10:24:09.744Z,100166.88
2022-11-18T10:26:39.279Z,100174.03
2022-11-18T10:29:10.832Z,100172.16
2022-11-18T10:31:53.310Z,100180.31
2022-11-18T10:34:20.543Z,100180.19
2022-11-18T10:37:13.297Z,100185.94
2022-11-18T10:40:22.719Z,100187.66
2022-11-18T10:42:49.329Z,100180.56
2022-11-18T10:45:26.423Z,100193.78
2022-11-18T10:48:22.360Z,100191.31
2022-11-18T10:50:55.450Z,100199.81
2022-11-18T10:53:37.570Z,100193.03
2022-11-18T10:56:09.331Z,100190.06
2022-11-18T10:58:40.957Z,100197.41
2022-11-18T11:01:24.458Z,100211.88
2022-11-18T11:04:04.648Z,100206.16
2022-11-18T11:06:38.561Z,100211.59
2022-11-18T11:09:05.097Z,100208.63
2022-11-18T11:11:35.797Z,100212.75
2022-11-18T11:14:43.042Z,100218.22
2022-11-18T11:17:14.038Z,100217.66
2022-11-18T11:19:49.166Z,100216.81
2022-11-18T11:22:16.398Z,100213.03
2022-11-18T11:24:43.014Z,100219.78
2022-11-18T11:30:37.894Z,100223.66
2022-11-18T11:33:19.867Z,100226.38
2022-11-18T11:36:20.086Z,100225.56
2022-11-18T11:38:58.676Z,100240.03
2022-11-18T11:41:43.905Z,100231.59
2022-11-18T11:44:23.414Z,100241.44
2022-11-18T11:47:37.494Z,100235.72
2022-11-18T11:50:17.438Z,100234.66
2022-11-18T11:53:00.260Z,100233.81
2022-11-18T11:55:32.834Z,100239.03
2022-11-18T11:58:24.204Z,100242.34
2022-11-18T12:01:05.066Z,100238.03
2022-11-18T12:03:57.411Z,100239.69
2022-11-18T12:06:23.866Z,100230.34
2022-11-18T12:09:05.726Z,100240.84
2022-11-18T12:12:00.822Z,100238.69
2022-11-18T12:14:47.759Z,100228.34
2022-11-18T12:17:23.317Z,100229.50
2022-11-18T12:19:49.790Z,100231.41
2022-11-18T12:22:16.295Z,100234.97
2022-11-18T12:24:43.215Z,100234.13
2022-11-18T12:27:09.604Z,100235.53
2022-11-18T12:29:41.626Z,100234.22
2022-11-18T12:32:46.514Z,100232.88
2022-11-18T12:35:13.010Z,100237.31
2022-11-18T12:38:26.774Z,100231.19
2022-11-18T12:40:53.412Z,100233.81
2022-11-18T12:43:44.410Z,100242.06
2022-11-18T12:46:31.114Z,100242.84
2022-11-18T12:48:57.789Z,100243.22
2022-11-18T12:51:25.317Z,100238.81
2022-11-18T12:53:53.173Z,100245.94
2022-11-18T12:56:24.610Z,100246.41
2022-11-18T12:59:00.084Z,100246.56
2022-11-18T13:01:29.478Z,100251.00
2022-11-18T13:04:17.249Z,100250.75
2022-11-18T13:06:44.734Z,100247.75
2022-11-18T13:09:22.859Z,100257.03
2022-11-18T13:11:56.588Z,100263.56
2022-11-18T13:14:46.998Z,100261.38
2022-11-18T13:17:51.817Z,100266.31
2022-11-18T13:20:31.041Z,100274.22
2022-11-18T13:23:19.702Z,100276.16
2022-11-18T13:25:48.138Z,100279.97
2022-11-18T13:28:36.169Z,100282.09
2022-11-18T13:31:13.154Z,100287.84
2022-11-18T13:33:40.250Z,100284.28
2022-11-18T13:36:33.304Z,100291.41
2022-11-18T13:39:05.804Z,100288.06
2022-11-18T13:41:34.461Z,100286.41
2022-11-18T13:44:19.416Z,100285.94
2022-11-18T13:46:50.457Z,100280.91
2022-11-18T13:49:23.678Z,100279.56
2022-11-18T13:51:51.627Z,100275.78
2022-11-18T13:54:26.780Z,100280.41
2022-11-18T13:56:54.270Z,100275.44
2022-11-18T13:59:23.445Z,100272.75
2022-11-18T14:01:55.758Z,100278.22
2022-11-18T14:04:31.286Z,100291.31
2022-11-18T14:07:24.449Z,100280.94
2022-11-18T14:09:57.010Z,100287.84
2022-11-18T14:12:28.766Z,100290.25
2022-11-18T14:15:16.274Z,100293.53
2022-11-18T14:17:57.152Z,100290.81
2022-11-18T14:20:25.099Z,100295.13
2022-11-18T14:22:55.922Z,100290.50
2022-11-18T14:25:29.768Z,100295.13
2022-11-18T14:28:12.759Z,100302.75
2022-11-18T14:30:41.799Z,100302.75
2022-11-18T14:33:11.266Z,100296.13
2022-11-18T14:35:39.402Z,100301.59
2022-11-18T14:38:47.704Z,100305.16
2022-11-18T14:41:09.866Z,100306.47
2022-11-18T14:43:36.755Z,100317.66
2022-11-18T14:46:14.035Z,100315.16
2022-11-18T14:48:40.622Z,100317.34
2022-11-18T14:51:07.118Z,100311.88
2022-11-18T14:53:33.618Z,100318.97
2022-11-18T14:56:00.334Z,100323.03
2022-11-18T14:58:26.904Z,100324.41
2022-11-18T15:00:53.515Z,100320.06
2022-11-18T15:03:20.107Z,100324.69
2022-11-18T15:05:46.714Z,100329.06
2022-11-18T15:08:13.607Z,100335.34
2022-11-18T15:10:40.228Z,100336.16
2022-11-18T15:13:06.683Z,100336.44
2022-11-18T15:15:33.134Z,100342.69
2022-11-18T15:17:59.658Z,100338.91
2022-11-18T15:20:26.386Z,100342.97
2022-11-18T15:22:52.981Z,100345.69
2022-11-18T15:25:19.475Z,100352.81
2022-11-18T15:27:45.941Z,100345.94
2022-11-18T15:30:14.723Z,100356.28
2022-11-18T15:32:41.678Z,100349.41
2022-11-18T15:35:11.075Z,100357.03
2022-11-18T15:37:37.603Z,100359.44
2022-11-18T15:40:04.245Z,100363.00
2022-11-18T15:42:30.751Z,100362.06
2022-11-18T15:44:57.215Z,100362.34
2022-11-18T15:47:23.677Z,100361.75
2022-11-18T15:49:50.167Z,100368.88
2022-11-18T15:52:17.014Z,100373.72
2022-11-18T15:54:44.342Z,100372.94
2022-11-18T15:57:10.809Z,100370.44
2022-11-18T15:59:37.304Z,100382.19
2022-11-18T16:02:03.864Z,100372.34
2022-11-18T16:04:30.383Z,100371.78
2022-11-18T16:06:57.900Z,100377.56
2022-11-18T16:09:24.452Z,100379.69
2022-11-18T16:12:09.611Z,100375.66
2022-11-18T16:14:37.964Z,100370.44
2022-11-18T16:17:04.409Z,100375.28
2022-11-18T16:19:33.490Z,100376.72
2022-11-18T16:22:00.195Z,100373.66
2022-11-18T16:24:28.862Z,100381.84
2022-11-18T16:26:55.882Z,100381.53
2022-11-18T16:29:23.225Z,100375.22
2022-11-18T16:31:52.084Z,100374.72
2022-11-18T16:34:26.170Z,100383.97
2022-11-18T16:36:55.637Z,100394.91
2022-11-18T16:39:24.900Z,100395.97
2022-11-18T16:41:52.976Z,100386.72
2022-11-18T16:44:19.764Z,100388.59
2022-11-18T16:46:51.308Z,100394.66
2022-11-18T16:49:20.208Z,100401.19
2022-11-18T16:51:49.109Z,100405.31
2022-11-18T16:54:17.935Z,100399.06
2022-11-18T16:56:44.879Z,100402.00
2022-11-18T16:59:17.581Z,100409.59
2022-11-18T17:01:44.822Z,100397.56
2022-11-18T17:04:14.215Z,100403.00
2022-11-18T17:06:41.339Z,100409.03
2022-11-18T17:09:12.247Z,100407.47
2022-11-18T17:11:38.703Z,100406.41
2022-11-18T17:14:05.240Z,100409.59
2022-11-18T17:16:31.702Z,100410.19
2022-11-18T17:19:00.214Z,100421.09
2022-11-18T17:21:28.366Z,100426.81
2022-11-18T17:23:55.983Z,100421.69
2022-11-18T17:26:25.831Z,100429.63
2022-11-18T17:28:52.428Z,100424.16
2022-11-18T17:31:21.382Z,100435.69
2022-11-18T17:33:49.001Z,100424.16
2022-11-18T17:36:17.990Z,100437.56
2022-11-18T17:38:47.177Z,100434.25
2022-11-18T17:41:34.317Z,100437.56
2022-11-18T17:44:03.538Z,100447.38
2022-11-18T17:46:36.403Z,100438.41
2022-11-18T17:49:06.957Z,100446.00
2022-11-18T17:51:33.555Z,100443.03
2022-11-18T17:54:00.061Z,100444.44
2022-11-18T17:56:26.653Z,100447.16
2022-11-18T17:58:53.278Z,100444.94
2022-11-18T18:01:21.367Z,100453.13
2022-11-18T18:03:48.522Z,100456.41
2022-11-18T18:06:18.955Z,100453.13
2022-11-18T18:08:45.425Z,100451.22
2022-11-18T18:11:18.834Z,100452.28
2022-11-18T18:14:04.214Z,100458.81
2022-11-18T18:16:32.261Z,100463.19
2022-11-18T18:19:00.828Z,100451.63
2022-11-18T18:21:28.054Z,100460.47
2022-11-18T18:23:54.706Z,100465.09
2022-11-18T18:26:24.198Z,100461.28
2022-11-18T18:28:54.702Z,100468.66
2022-11-18T18:31:21.216Z,100461.53
2022-11-18T18:33:47.714Z,100469.72
2022-11-18T18:36:16.425Z,100466.66
2022-11-18T18:38:43.714Z,100467.72
2022-11-18T18:41:14.790Z,100478.06
2022-11-18T18:43:41.541Z,100475.66
2022-11-18T18:46:31.755Z,100485.97
2022-11-18T18:49:06.418Z,100481.13
2022-11-18T18:51:37.366Z,100483.03
2022-11-18T18:54:04.599Z,100477.56
2022-11-18T18:56:32.424Z,100487.66
2022-11-18T18:58:59.071Z,100492.28
2022-11-18T19:01:27.190Z,100496.66
2022-11-18T19:04:01.924Z,100500.22
2022-11-18T19:09:18.217Z,100495.25
2022-11-18T19:12:04.423Z,100488.72
2022-11-18T19:14:33.396Z,100502.94
2022-11-18T19:17:02.456Z,100495.59
2022-11-18T19:19:51.677Z,100490.03
2022-11-18T19:22:18.150Z,100504.00
2022-11-18T19:24:52.514Z,100499.16
2022-11-18T19:27:20.037Z,100504.63
2022-11-18T19:29:46.595Z,100514.94
2022-11-18T19:32:13.445Z,100508.31
2022-11-18T19:34:40.025Z,100508.91
2022-11-18T19:37:06.768Z,100514.94
2022-11-18T19:39:33.458Z,100514.94
2022-11-18T19:41:59.998Z,100518.72
2022-11-18T19:44:26.578Z,100516.25
2022-11-18T19:46:53.150Z,100525.28
2022-11-18T19:49:19.912Z,100522.03
2022-11-18T19:51:46.730Z,100520.38
2022-11-18T19:54:13.661Z,100531.28
2022-11-18T19:56:40.120Z,100529.63
2022-11-18T19:59:06.665Z,100531.28
2022-11-18T20:01:33.466Z,100535.69
2022-11-18T20:04:05.540Z,100544.09
2022-11-18T20:06:34.501Z,100544.59
2022-11-18T20:09:02.099Z,100543.19
2022-11-18T20:11:28.819Z,100541.53
2022-11-18T20:13:55.324Z,100542.13
2022-11-18T20:16:24.538Z,100539.03
2022-11-18T20:18:56.585Z,100555.78
2022-11-18T20:21:24.489Z,100538.22
2022-11-18T20:23:54.935Z,100554.09
2022-11-18T20:26:23.135Z,100552.22
2022-11-18T20:28:54.439Z,100556.00
2022-11-18T20:31:24.658Z,100553.03
2022-11-18T20:33:52.493Z,100559.78
2022-11-18T20:36:31.208Z,100560.97
2022-11-18T20:39:04.257Z,100565.50
2022-11-18T20:41:31.767Z,100559.56
2022-11-18T20:44:01.479Z,100564.19
2022-11-18T20:46:28.221Z,100567.13
2022-11-18T20:48:55.467Z,100564.91
2022-11-18T20:51:24.632Z,100572.53
2022-11-18T20:53:52.788Z,100578.53
2022-11-18T20:56:25.573Z,100582.00
2022-11-18T20:58:52.458Z,100570.59
2022-11-18T21:01:24.773Z,100583.09
2022-11-18T21:03:57.143Z,100587.09
2022-11-18T21:06:25.936Z,100584.03
2022-11-18T21:08:57.862Z,100585.84
2022-11-18T21:11:24.887Z,100585.94
2022-11-18T21:14:09.890Z,100579.56
2022-11-18T21:16:36.490Z,100585.84
2022-11-18T21:19:04.579Z,100589.28
2022-11-18T21:21:46.027Z,100602.91
2022-11-18T21:24:15.235Z,100610.16
2022-11-18T21:26:42.459Z,100609.78
2022-11-18T21:29:11.154Z,100614.91
2022-11-18T21:31:38.122Z,100608.25
2022-11-18T21:34:06.003Z,100619.66
2022-11-18T21:36:33.164Z,100622.88
2022-11-18T21:39:00.984Z,100613.50
2022-11-18T21:41:28.619Z,100615.03
2022-11-18T21:44:05.611Z,100618.13
2022-11-18T21:46:34.189Z,100624.28
2022-11-18T21:49:00.826Z,100615.63
2022-11-18T21:51:27.442Z,100623.78
2022-11-18T21:53:54.547Z,100626.16
2022-11-18T21:56:23.010Z,100624.75
2022-11-18T21:58:50.294Z,100626.88
2022-11-18T22:01:23.310Z,100635.75
2022-11-18T22:04:01.799Z,100637.41
2022-11-18T22:06:33.341Z,100636.13
2022-11-18T22:09:01.238Z,100646.78
2022-11-18T22:11:28.357Z,100636.13
2022-11-18T22:13:55.390Z,100646.66
2022-11-18T22:16:23.592Z,100654.13
2022-11-18T22:18:57.360Z,100647.84
2022-11-18T22:21:28.808Z,100658.28
2022-11-18T22:24:00.253Z,100660.84
2022-11-18T22:26:28.093Z,100658.59
2022-11-18T22:28:57.196Z,100662.47
2022-11-18T22:31:25.647Z,100664.59
2022-11-18T22:33:52.942Z,100662.00
2022-11-18T22:36:21.253Z,100674.44
2022-11-18T22:38:48.138Z,100674.28
2022-11-18T22:41:38.669Z,100676.28
2022-11-18T22:44:07.925Z,100676.97
2022-11-18T22:46:39.337Z,100686.22
2022-11-18T22:49:07.441Z,100687.59
2022-11-18T22:51:35.138Z,100686.38
2022-11-18T22:54:36.513Z,100694.63
2022-11-18T22:56:48.232Z,100697.66
2022-11-18T22:59:14.737Z,100697.88
2022-11-18T23:01:41.261Z,100703.63
2022-11-18T23:04:07.968Z,100699.50
2022-11-18T23:06:34.556Z,100708.59
2022-11-18T23:09:01.032Z,100708.41
2022-11-18T23:11:46.238Z,100708.94
2022-11-18T23:14:12.697Z,100711.06
2022-11-18T23:16:41.397Z,100719.69
2022-11-18T23:19:13.245Z,100730.84
2022-11-18T23:21:39.937Z,100731.88
2022-11-18T23:24:07.627Z,100726.31
2022-11-18T23:26:34.137Z,100726.63
2022-11-18T23:29:00.649Z,100743.22
2022-11-18T23:31:27.785Z,100744.50
2022-11-18T23:33:55.905Z,100752.16
2022-11-18T23:36:23.126Z,100746.38
2022-11-18T23:38:51.369Z,100736.78
2022-11-18T23:41:18.698Z,100751.66
2022-11-18T23:43:47.169Z,100751.50
2022-11-18T23:46:14.311Z,100751.88
2022-11-18T23:48:42.584Z,100747.13
2022-11-18T23:51:11.418Z,100756.47
2022-11-18T23:53:38.776Z,100756.38
2022-11-18T23:56:10.170Z,100762.72
2022-11-18T23:58:37.861Z,100759.94
